sensor_id;sensor_type;location;lat;lon;timestamp;pressure;altitude;pressure_sealevel;temperature;humidity
21555;BME280;10938;44.794;-0.676;2022-10-31T00:01:30;101276.03;;;20.97;93.92
21555;BME280;10938;44.794;-0.676;2022-10-31T00:03:56;101272.31;;;21.05;92.55
21555;BME280;10938;44.794;-0.676;2022-10-31T00:06:22;101265.28;;;21.04;92.25
21555;BME280;10938;44.794;-0.676;2022-10-31T00:08:53;101257.41;;;21.00;93.87
21555;BME280;10938;44.794;-0.676;2022-10-31T00:11:19;101263.06;;;20.82;95.09
21555;BME280;10938;44.794;-0.676;2022-10-31T00:13:44;101252.41;;;20.86;94.48
21555;BME280;10938;44.794;-0.676;2022-10-31T00:16:23;101250.78;;;20.79;95.24
21555;BME280;10938;44.794;-0.676;2022-10-31T00:18:54;101251.66;;;20.78;95.64
21555;BME280;10938;44.794;-0.676;2022-10-31T00:21:20;101238.53;;;20.72;94.96
21555;BME280;10938;44.794;-0.676;2022-10-31T00:23:46;101232.66;;;20.58;96.33
21555;BME280;10938;44.794;-0.676;2022-10-31T00:26:12;101230.72;;;20.68;96.21
21555;BME280;10938;44.794;-0.676;2022-10-31T00:28:38;101235.47;;;20.50;97.77
21555;BME280;10938;44.794;-0.676;2022-10-31T00:31:06;101229.91;;;20.63;97.50
21555;BME280;10938;44.794;-0.676;2022-10-31T00:33:34;101244.63;;;20.77;95.86
21555;BME280;10938;44.794;-0.676;2022-10-31T00:36:00;101250.50;;;20.93;93.85
21555;BME280;10938;44.794;-0.676;2022-10-31T00:38:25;101262.56;;;21.06;92.12
21555;BME280;10938;44.794;-0.676;2022-10-31T00:40:51;101276.69;;;21.08;91.63
21555;BME280;10938;44.794;-0.676;2022-10-31T00:43:16;101280.59;;;20.90;93.11
21555;BME280;10938;44.794;-0.676;2022-10-31T00:45:42;101285.28;;;20.76;94.88
21555;BME280;10938;44.794;-0.676;2022-10-31T00:48:08;101290.59;;;20.76;95.32
21555;BME280;10938;44.794;-0.676;2022-10-31T00:50:33;101279.84;;;20.82;94.92
21555;BME280;10938;44.794;-0.676;2022-10-31T00:52:59;101272.50;;;20.96;93.02
21555;BME280;10938;44.794;-0.676;2022-10-31T00:55:24;101257.44;;;20.98;92.74
21555;BME280;10938;44.794;-0.676;2022-10-31T00:57:50;101262.06;;;20.89;93.79
21555;BME280;10938;44.794;-0.676;2022-10-31T01:00:15;101256.75;;;20.89;93.90
21555;BME280;10938;44.794;-0.676;2022-10-31T01:02:41;101253.97;;;20.95;93.48
21555;BME280;10938;44.794;-0.676;2022-10-31T01:05:07;101251.97;;;21.06;92.98
21555;BME280;10938;44.794;-0.676;2022-10-31T01:07:35;101252.97;;;21.00;94.05
21555;BME280;10938;44.794;-0.676;2022-10-31T01:10:01;101246.09;;;20.92;95.10
21555;BME280;10938;44.794;-0.676;2022-10-31T01:12:26;101254.16;;;20.86;96.13
21555;BME280;10938;44.794;-0.676;2022-10-31T01:14:52;101268.28;;;20.86;96.26
21555;BME280;10938;44.794;-0.676;2022-10-31T01:17:17;101274.00;;;20.67;100.00
21555;BME280;10938;44.794;-0.676;2022-10-31T01:19:42;101190.06;;;19.74;100.00
21555;BME280;10938;44.794;-0.676;2022-10-31T01:22:08;101174.75;;;18.00;100.00
21555;BME280;10938;44.794;-0.676;2022-10-31T01:24:33;101193.44;;;17.76;100.00
21555;BME280;10938;44.794;-0.676;2022-10-31T01:26:59;101198.53;;;17.97;100.00
21555;BME280;10938;44.794;-0.676;2022-10-31T01:29:24;101198.91;;;18.44;100.00
21555;BME280;10938;44.794;-0.676;2022-10-31T01:31:50;101187.53;;;19.10;100.00
21555;BME280;10938;44.794;-0.676;2022-10-31T01:34:16;101174.66;;;19.46;100.00
21555;BME280;10938;44.794;-0.676;2022-10-31T01:36:43;101165.19;;;19.30;100.00
21555;BME280;10938;44.794;-0.676;2022-10-31T01:39:14;101156.47;;;19.22;100.00
21555;BME280;10938;44.794;-0.676;2022-10-31T01:41:48;101154.72;;;19.23;100.00
21555;BME280;10938;44.794;-0.676;2022-10-31T01:46:43;101138.53;;;18.86;100.00
21555;BME280;10938;44.794;-0.676;2022-10-31T01:49:24;101139.25;;;18.97;100.00
21555;BME280;10938;44.794;-0.676;2022-10-31T01:52:19;101132.69;;;19.22;100.00
21555;BME280;10938;44.794;-0.676;2022-10-31T01:54:50;101126.66;;;19.14;100.00
21555;BME280;10938;44.794;-0.676;2022-10-31T01:57:17;101122.53;;;18.95;100.00
21555;BME280;10938;44.794;-0.676;2022-10-31T01:59:47;101118.06;;;19.00;100.00
21555;BME280;10938;44.794;-0.676;2022-10-31T02:02:15;101110.97;;;19.02;100.00
21555;BME280;10938;44.794;-0.676;2022-10-31T02:04:42;101121.75;;;18.90;100.00
21555;BME280;10938;44.794;-0.676;2022-10-31T02:07:13;101119.25;;;18.79;100.00
21555;BME280;10938;44.794;-0.676;2022-10-31T02:09:40;101105.63;;;19.07;100.00
21555;BME280;10938;44.794;-0.676;2022-10-31T02:12:06;101102.66;;;19.28;100.00
21555;BME280;10938;44.794;-0.676;2022-10-31T02:14:33;101099.25;;;19.18;100.00
21555;BME280;10938;44.794;-0.676;2022-10-31T02:17:00;101086.50;;;18.91;100.00
21555;BME280;10938;44.794;-0.676;2022-10-31T02:19:45;101076.78;;;18.91;100.00
21555;BME280;10938;44.794;-0.676;2022-10-31T02:22:26;101066.94;;;19.04;100.00
21555;BME280;10938;44.794;-0.676;2022-10-31T02:33:31;101043.47;;;18.84;100.00
21555;BME280;10938;44.794;-0.676;2022-10-31T02:36:08;101041.81;;;18.76;100.00
21555;BME280;10938;44.794;-0.676;2022-10-31T02:44:29;101028.09;;;18.52;100.00
21555;BME280;10938;44.794;-0.676;2022-10-31T02:49:37;101011.22;;;18.63;100.00
21555;BME280;10938;44.794;-0.676;2022-10-31T02:54:46;101008.72;;;18.49;100.00
21555;BME280;10938;44.794;-0.676;2022-10-31T02:57:12;101005.09;;;18.61;100.00
21555;BME280;10938;44.794;-0.676;2022-10-31T02:59:45;101005.50;;;18.90;100.00
21555;BME280;10938;44.794;-0.676;2022-10-31T03:12:43;100984.91;;;18.57;100.00
21555;BME280;10938;44.794;-0.676;2022-10-31T03:15:18;100983.97;;;18.59;100.00
21555;BME280;10938;44.794;-0.676;2022-10-31T03:20:36;100970.59;;;18.70;100.00
21555;BME280;10938;44.794;-0.676;2022-10-31T03:23:05;100963.78;;;18.55;100.00
21555;BME280;10938;44.794;-0.676;2022-10-31T03:25:32;100960.38;;;18.45;100.00
21555;BME280;10938;44.794;-0.676;2022-10-31T03:28:01;100953.06;;;18.66;100.00
21555;BME280;10938;44.794;-0.676;2022-10-31T03:30:28;100933.69;;;18.67;100.00
21555;BME280;10938;44.794;-0.676;2022-10-31T03:32:57;100936.56;;;18.48;100.00
21555;BME280;10938;44.794;-0.676;2022-10-31T03:35:26;100934.72;;;18.55;100.00
21555;BME280;10938;44.794;-0.676;2022-10-31T03:37:54;100939.31;;;18.42;100.00
21555;BME280;10938;44.794;-0.676;2022-10-31T03:40:21;100933.97;;;18.45;100.00
21555;BME280;10938;44.794;-0.676;2022-10-31T03:42:54;100925.16;;;18.46;100.00
21555;BME280;10938;44.794;-0.676;2022-10-31T03:45:24;100934.06;;;18.39;100.00
21555;BME280;10938;44.794;-0.676;2022-10-31T03:47:52;100920.63;;;18.56;100.00
21555;BME280;10938;44.794;-0.676;2022-10-31T03:50:18;100915.06;;;18.73;100.00
21555;BME280;10938;44.794;-0.676;2022-10-31T03:53:08;100915.06;;;18.73;100.00
21555;BME280;10938;44.794;-0.676;2022-10-31T03:55:42;100912.91;;;18.44;100.00
21555;BME280;10938;44.794;-0.676;2022-10-31T03:58:21;100913.53;;;18.60;100.00
21555;BME280;10938;44.794;-0.676;2022-10-31T04:00:51;100918.84;;;18.58;100.00
21555;BME280;10938;44.794;-0.676;2022-10-31T04:05:49;100914.94;;;18.25;100.00
21555;BME280;10938;44.794;-0.676;2022-10-31T04:08:19;100909.34;;;18.45;100.00
21555;BME280;10938;44.794;-0.676;2022-10-31T04:10:48;100907.84;;;18.30;100.00
21555;BME280;10938;44.794;-0.676;2022-10-31T04:13:19;100904.41;;;18.24;100.00
21555;BME280;10938;44.794;-0.676;2022-10-31T04:15:46;100904.28;;;18.31;100.00
21555;BME280;10938;44.794;-0.676;2022-10-31T04:18:12;100901.91;;;18.15;100.00
21555;BME280;10938;44.794;-0.676;2022-10-31T04:20:40;100897.16;;;18.36;100.00
21555;BME280;10938;44.794;-0.676;2022-10-31T04:23:20;100897.59;;;18.11;100.00
21555;BME280;10938;44.794;-0.676;2022-10-31T04:25:47;100903.38;;;18.34;100.00
21555;BME280;10938;44.794;-0.676;2022-10-31T04:28:12;100902.28;;;18.45;100.00
21555;BME280;10938;44.794;-0.676;2022-10-31T04:30:38;100915.81;;;18.26;100.00
21555;BME280;10938;44.794;-0.676;2022-10-31T04:33:03;100897.03;;;17.87;100.00
21555;BME280;10938;44.794;-0.676;2022-10-31T04:35:28;100895.78;;;18.14;100.00
21555;BME280;10938;44.794;-0.676;2022-10-31T04:37:54;100895.09;;;17.98;100.00
21555;BME280;10938;44.794;-0.676;2022-10-31T04:40:19;100887.97;;;18.07;100.00
21555;BME280;10938;44.794;-0.676;2022-10-31T04:42:45;100878.59;;;17.87;100.00
21555;BME280;10938;44.794;-0.676;2022-10-31T04:45:10;100877.84;;;17.76;100.00
21555;BME280;10938;44.794;-0.676;2022-10-31T04:47:35;100872.81;;;17.55;100.00
21555;BME280;10938;44.794;-0.676;2022-10-31T04:50:01;100866.59;;;17.64;100.00
21555;BME280;10938;44.794;-0.676;2022-10-31T04:52:27;100848.88;;;17.72;100.00
21555;BME280;10938;44.794;-0.676;2022-10-31T04:54:53;100842.53;;;17.88;100.00
21555;BME280;10938;44.794;-0.676;2022-10-31T04:57:18;100845.50;;;17.64;100.00
21555;BME280;10938;44.794;-0.676;2022-10-31T04:59:43;100841.94;;;17.68;100.00
21555;BME280;10938;44.794;-0.676;2022-10-31T05:02:09;100831.44;;;17.63;100.00
21555;BME280;10938;44.794;-0.676;2022-10-31T05:04:34;100817.25;;;17.73;100.00
21555;BME280;10938;44.794;-0.676;2022-10-31T05:07:00;100811.00;;;17.79;100.00
21555;BME280;10938;44.794;-0.676;2022-10-31T05:09:25;100816.31;;;17.77;100.00
21555;BME280;10938;44.794;-0.676;2022-10-31T05:11:50;100818.94;;;17.76;100.00
21555;BME280;10938;44.794;-0.676;2022-10-31T05:14:16;100816.31;;;17.77;100.00
21555;BME280;10938;44.794;-0.676;2022-10-31T05:16:41;100827.34;;;17.38;100.00
21555;BME280;10938;44.794;-0.676;2022-10-31T05:19:06;100839.34;;;17.63;100.00
21555;BME280;10938;44.794;-0.676;2022-10-31T05:21:32;100826.91;;;17.73;100.00
21555;BME280;10938;44.794;-0.676;2022-10-31T05:23:57;100822.81;;;17.50;100.00
21555;BME280;10938;44.794;-0.676;2022-10-31T05:26:23;100830.38;;;17.76;100.00
21555;BME280;10938;44.794;-0.676;2022-10-31T05:28:48;100845.50;;;17.64;100.00
21555;BME280;10938;44.794;-0.676;2022-10-31T05:31:13;100837.88;;;17.41;100.00
21555;BME280;10938;44.794;-0.676;2022-10-31T05:33:39;100837.69;;;17.53;100.00
21555;BME280;10938;44.794;-0.676;2022-10-31T05:36:04;100826.13;;;17.65;100.00
21555;BME280;10938;44.794;-0.676;2022-10-31T05:38:30;100816.00;;;17.34;100.00
21555;BME280;10938;44.794;-0.676;2022-10-31T05:40:56;100813.41;;;17.28;100.00
21555;BME280;10938;44.794;-0.676;2022-10-31T05:43:23;100803.72;;;17.32;100.00
21555;BME280;10938;44.794;-0.676;2022-10-31T05:45:52;100809.69;;;17.46;100.00
21555;BME280;10938;44.794;-0.676;2022-10-31T05:48:18;100821.00;;;17.56;100.00
21555;BME280;10938;44.794;-0.676;2022-10-31T05:50:43;100821.00;;;17.56;100.00
21555;BME280;10938;44.794;-0.676;2022-10-31T05:53:08;100825.41;;;17.54;100.00
21555;BME280;10938;44.794;-0.676;2022-10-31T05:55:34;100815.63;;;17.62;100.00
21555;BME280;10938;44.794;-0.676;2022-10-31T05:57:59;100817.97;;;17.17;100.00
21555;BME280;10938;44.794;-0.676;2022-10-31T06:00:25;100803.72;;;17.33;100.00
21555;BME280;10938;44.794;-0.676;2022-10-31T06:03:05;100809.47;;;16.92;100.00
21555;BME280;10938;44.794;-0.676;2022-10-31T06:05:31;100806.81;;;16.97;100.00
21555;BME280;10938;44.794;-0.676;2022-10-31T06:07:57;100800.50;;;17.10;100.00
21555;BME280;10938;44.794;-0.676;2022-10-31T06:10:23;100803.66;;;17.36;100.00
21555;BME280;10938;44.794;-0.676;2022-10-31T06:12:48;100798.56;;;17.24;100.00
21555;BME280;10938;44.794;-0.676;2022-10-31T06:15:14;100803.34;;;16.92;100.00
21555;BME280;10938;44.794;-0.676;2022-10-31T06:17:40;100796.97;;;17.10;100.00
21555;BME280;10938;44.794;-0.676;2022-10-31T06:20:06;100795.50;;;16.87;100.00
21555;BME280;10938;44.794;-0.676;2022-10-31T06:22:32;100786.81;;;16.81;100.00
21555;BME280;10938;44.794;-0.676;2022-10-31T06:24:57;100784.91;;;16.93;100.00
21555;BME280;10938;44.794;-0.676;2022-10-31T06:27:23;100782.75;;;17.24;100.00
21555;BME280;10938;44.794;-0.676;2022-10-31T06:29:49;100783.63;;;17.22;100.00
21555;BME280;10938;44.794;-0.676;2022-10-31T06:32:14;100782.69;;;17.29;100.00
21555;BME280;10938;44.794;-0.676;2022-10-31T06:34:41;100785.13;;;17.44;100.00
21555;BME280;10938;44.794;-0.676;2022-10-31T06:37:08;100790.25;;;17.56;100.00
21555;BME280;10938;44.794;-0.676;2022-10-31T06:39:34;100792.28;;;17.33;100.00
21555;BME280;10938;44.794;-0.676;2022-10-31T06:42:00;100802.25;;;17.11;100.00
21555;BME280;10938;44.794;-0.676;2022-10-31T06:44:25;100804.22;;;16.94;100.00
21555;BME280;10938;44.794;-0.676;2022-10-31T06:46:51;100790.56;;;17.30;100.00
21555;BME280;10938;44.794;-0.676;2022-10-31T06:49:17;100789.59;;;17.36;100.00
21555;BME280;10938;44.794;-0.676;2022-10-31T06:51:42;100786.41;;;17.14;100.00
21555;BME280;10938;44.794;-0.676;2022-10-31T06:54:08;100776.47;;;17.31;100.00
21555;BME280;10938;44.794;-0.676;2022-10-31T06:56:34;100791.31;;;17.38;100.00
21555;BME280;10938;44.794;-0.676;2022-10-31T06:58:59;100788.28;;;17.03;100.00
21555;BME280;10938;44.794;-0.676;2022-10-31T07:01:25;100776.91;;;16.99;100.00
21555;BME280;10938;44.794;-0.676;2022-10-31T07:03:50;100784.59;;;17.16;100.00
21555;BME280;10938;44.794;-0.676;2022-10-31T07:06:15;100797.25;;;17.57;100.00
21555;BME280;10938;44.794;-0.676;2022-10-31T07:08:41;100801.84;;;17.40;100.00
21555;BME280;10938;44.794;-0.676;2022-10-31T07:11:06;100798.84;;;17.00;100.00
21555;BME280;10938;44.794;-0.676;2022-10-31T07:13:32;100790.88;;;17.06;100.00
21555;BME280;10938;44.794;-0.676;2022-10-31T07:16:03;100792.75;;;16.96;100.00
21555;BME280;10938;44.794;-0.676;2022-10-31T07:18:29;100789.09;;;17.08;100.00
21555;BME280;10938;44.794;-0.676;2022-10-31T07:20:54;100787.16;;;17.22;100.00
21555;BME280;10938;44.794;-0.676;2022-10-31T07:23:20;100794.00;;;17.35;100.00
21555;BME280;10938;44.794;-0.676;2022-10-31T07:25:45;100801.19;;;17.24;100.00
21555;BME280;10938;44.794;-0.676;2022-10-31T07:28:11;100790.81;;;17.78;100.00
21555;BME280;10938;44.794;-0.676;2022-10-31T07:30:37;100790.88;;;18.27;100.00
21555;BME280;10938;44.794;-0.676;2022-10-31T07:33:04;100804.78;;;17.81;100.00
21555;BME280;10938;44.794;-0.676;2022-10-31T07:35:30;100810.19;;;18.29;100.00
21555;BME280;10938;44.794;-0.676;2022-10-31T07:37:56;100824.53;;;18.14;100.00
21555;BME280;10938;44.794;-0.676;2022-10-31T07:40:22;100827.50;;;18.45;100.00
21555;BME280;10938;44.794;-0.676;2022-10-31T07:42:50;100835.69;;;18.28;100.00
21555;BME280;10938;44.794;-0.676;2022-10-31T07:45:19;100837.41;;;18.32;100.00
21555;BME280;10938;44.794;-0.676;2022-10-31T07:47:49;100841.84;;;18.29;100.00
21555;BME280;10938;44.794;-0.676;2022-10-31T07:50:26;100848.78;;;18.36;100.00
21555;BME280;10938;44.794;-0.676;2022-10-31T07:53:05;100855.22;;;18.72;100.00
21555;BME280;10938;44.794;-0.676;2022-10-31T07:55:31;100862.09;;;19.28;100.00
21555;BME280;10938;44.794;-0.676;2022-10-31T07:58:02;100860.41;;;18.78;100.00
21555;BME280;10938;44.794;-0.676;2022-10-31T08:00:28;100870.56;;;19.85;100.00
21555;BME280;10938;44.794;-0.676;2022-10-31T08:03:01;100880.53;;;19.74;100.00
21555;BME280;10938;44.794;-0.676;2022-10-31T08:05:27;100886.03;;;20.41;100.00
21555;BME280;10938;44.794;-0.676;2022-10-31T08:07:53;100895.47;;;20.15;100.00
21555;BME280;10938;44.794;-0.676;2022-10-31T08:10:19;100880.06;;;19.93;100.00
21555;BME280;10938;44.794;-0.676;2022-10-31T08:12:44;100899.50;;;19.92;100.00
21555;BME280;10938;44.794;-0.676;2022-10-31T08:15:10;100886.16;;;19.97;100.00
21555;BME280;10938;44.794;-0.676;2022-10-31T08:17:36;100888.53;;;19.71;100.00
21555;BME280;10938;44.794;-0.676;2022-10-31T08:20:06;100891.59;;;19.91;100.00
21555;BME280;10938;44.794;-0.676;2022-10-31T08:22:31;100891.03;;;19.77;100.00
21555;BME280;10938;44.794;-0.676;2022-10-31T08:24:57;100877.31;;;20.36;100.00
21555;BME280;10938;44.794;-0.676;2022-10-31T08:27:22;100889.06;;;20.60;100.00
21555;BME280;10938;44.794;-0.676;2022-10-31T08:29:48;100879.34;;;19.87;100.00
21555;BME280;10938;44.794;-0.676;2022-10-31T08:32:13;100878.22;;;19.97;100.00
21555;BME280;10938;44.794;-0.676;2022-10-31T08:34:39;100868.69;;;20.96;100.00
21555;BME280;10938;44.794;-0.676;2022-10-31T08:37:04;100865.41;;;21.49;100.00
21555;BME280;10938;44.794;-0.676;2022-10-31T08:39:29;100875.91;;;21.83;100.00
21555;BME280;10938;44.794;-0.676;2022-10-31T08:41:55;100876.59;;;21.31;100.00
21555;BME280;10938;44.794;-0.676;2022-10-31T08:44:20;100874.63;;;20.72;100.00
21555;BME280;10938;44.794;-0.676;2022-10-31T08:46:46;100871.19;;;21.34;100.00
21555;BME280;10938;44.794;-0.676;2022-10-31T08:49:11;100861.00;;;21.50;100.00
21555;BME280;10938;44.794;-0.676;2022-10-31T08:51:37;100857.00;;;21.03;100.00
21555;BME280;10938;44.794;-0.676;2022-10-31T08:54:02;100853.53;;;21.01;100.00
21555;BME280;10938;44.794;-0.676;2022-10-31T08:56:28;100855.25;;;20.71;100.00
21555;BME280;10938;44.794;-0.676;2022-10-31T08:58:53;100846.50;;;20.68;100.00
21555;BME280;10938;44.794;-0.676;2022-10-31T09:01:19;100849.53;;;20.16;100.00
21555;BME280;10938;44.794;-0.676;2022-10-31T09:03:44;100840.59;;;20.89;100.00
21555;BME280;10938;44.794;-0.676;2022-10-31T09:06:10;100831.66;;;20.61;100.00
21555;BME280;10938;44.794;-0.676;2022-10-31T09:08:36;100841.09;;;21.03;100.00
21555;BME280;10938;44.794;-0.676;2022-10-31T09:11:02;100829.28;;;20.84;100.00
21555;BME280;10938;44.794;-0.676;2022-10-31T09:13:28;100839.63;;;20.61;100.00
21555;BME280;10938;44.794;-0.676;2022-10-31T09:15:55;100825.53;;;21.23;100.00
21555;BME280;10938;44.794;-0.676;2022-10-31T09:18:22;100828.97;;;21.27;100.00
21555;BME280;10938;44.794;-0.676;2022-10-31T09:20:49;100832.34;;;21.89;100.00
21555;BME280;10938;44.794;-0.676;2022-10-31T09:23:17;100832.56;;;21.83;100.00
21555;BME280;10938;44.794;-0.676;2022-10-31T09:25:43;100837.41;;;21.10;100.00
21555;BME280;10938;44.794;-0.676;2022-10-31T09:28:11;100829.03;;;21.54;100.00
21555;BME280;10938;44.794;-0.676;2022-10-31T09:30:37;100831.88;;;21.76;100.00
21555;BME280;10938;44.794;-0.676;2022-10-31T09:33:08;100823.44;;;22.45;100.00
21555;BME280;10938;44.794;-0.676;2022-10-31T09:35:34;100824.19;;;21.96;100.00
21555;BME280;10938;44.794;-0.676;2022-10-31T09:38:05;100818.75;;;22.01;100.00
21555;BME280;10938;44.794;-0.676;2022-10-31T09:40:40;100816.25;;;22.23;100.00
21555;BME280;10938;44.794;-0.676;2022-10-31T09:46:55;100813.63;;;21.66;100.00
21555;BME280;10938;44.794;-0.676;2022-10-31T09:49:57;100800.69;;;21.83;100.00
21555;BME280;10938;44.794;-0.676;2022-10-31T09:52:21;100809.56;;;22.62;100.00
21555;BME280;10938;44.794;-0.676;2022-10-31T09:54:58;100812.31;;;22.59;100.00
21555;BME280;10938;44.794;-0.676;2022-10-31T09:57:29;100807.16;;;22.30;100.00
21555;BME280;10938;44.794;-0.676;2022-10-31T09:59:56;100802.16;;;22.45;100.00
21555;BME280;10938;44.794;-0.676;2022-10-31T10:02:35;100812.22;;;23.81;100.00
21555;BME280;10938;44.794;-0.676;2022-10-31T10:05:04;100810.59;;;23.99;100.00
21555;BME280;10938;44.794;-0.676;2022-10-31T10:18:47;100826.03;;;23.91;100.00
21555;BME280;10938;44.794;-0.676;2022-10-31T10:30:03;100843.59;;;24.18;100.00
21555;BME280;10938;44.794;-0.676;2022-10-31T10:32:35;100843.44;;;23.78;100.00
21555;BME280;10938;44.794;-0.676;2022-10-31T10:40:29;100842.22;;;23.15;100.00
21555;BME280;10938;44.794;-0.676;2022-10-31T10:45:50;100845.72;;;23.87;99.72
21555;BME280;10938;44.794;-0.676;2022-10-31T10:48:44;100842.03;;;23.91;100.00
21555;BME280;10938;44.794;-0.676;2022-10-31T10:51:20;100834.78;;;23.94;100.00
21555;BME280;10938;44.794;-0.676;2022-10-31T10:54:28;100829.53;;;23.70;100.00
21555;BME280;10938;44.794;-0.676;2022-10-31T10:59:50;100818.53;;;23.79;98.22
21555;BME280;10938;44.794;-0.676;2022-10-31T11:02:27;100817.34;;;23.86;98.24
21555;BME280;10938;44.794;-0.676;2022-10-31T11:04:55;100810.38;;;24.27;97.12
21555;BME280;10938;44.794;-0.676;2022-10-31T11:07:21;100808.56;;;24.05;97.01
21555;BME280;10938;44.794;-0.676;2022-10-31T11:09:47;100812.56;;;23.50;98.99
21555;BME280;10938;44.794;-0.676;2022-10-31T11:14:50;100810.38;;;24.05;96.97
21555;BME280;10938;44.794;-0.676;2022-10-31T11:19:47;100811.59;;;23.96;95.91
21555;BME280;10938;44.794;-0.676;2022-10-31T11:22:17;100794.25;;;24.08;96.58
21555;BME280;10938;44.794;-0.676;2022-10-31T11:24:43;100789.19;;;23.80;97.35
21555;BME280;10938;44.794;-0.676;2022-10-31T11:27:16;100777.09;;;23.93;96.36
21555;BME280;10938;44.794;-0.676;2022-10-31T11:29:44;100764.06;;;23.19;99.15
21555;BME280;10938;44.794;-0.676;2022-10-31T11:32:19;100770.22;;;23.44;98.47
21555;BME280;10938;44.794;-0.676;2022-10-31T11:34:46;100757.94;;;23.40;98.73
21555;BME280;10938;44.794;-0.676;2022-10-31T11:37:23;100753.03;;;23.75;96.72
21555;BME280;10938;44.794;-0.676;2022-10-31T11:39:54;100749.97;;;23.62;97.15
21555;BME280;10938;44.794;-0.676;2022-10-31T11:42:22;100738.97;;;22.80;100.00
21555;BME280;10938;44.794;-0.676;2022-10-31T11:44:49;100734.00;;;22.71;100.00
21555;BME280;10938;44.794;-0.676;2022-10-31T11:47:17;100719.56;;;22.78;100.00
21555;BME280;10938;44.794;-0.676;2022-10-31T11:49:47;100713.03;;;22.62;100.00
21555;BME280;10938;44.794;-0.676;2022-10-31T11:52:21;100714.47;;;22.95;100.00
21555;BME280;10938;44.794;-0.676;2022-10-31T11:54:58;100706.31;;;23.66;99.55
21555;BME280;10938;44.794;-0.676;2022-10-31T11:57:29;100705.16;;;23.06;100.00
21555;BME280;10938;44.794;-0.676;2022-10-31T12:00:00;100706.31;;;22.99;100.00
21555;BME280;10938;44.794;-0.676;2022-10-31T12:02:28;100685.06;;;23.44;99.56
21555;BME280;10938;44.794;-0.676;2022-10-31T12:05:10;100679.34;;;23.53;98.74
21555;BME280;10938;44.794;-0.676;2022-10-31T12:07:43;100672.28;;;23.31;99.89
21555;BME280;10938;44.794;-0.676;2022-10-31T12:10:13;100666.97;;;23.52;99.05
21555;BME280;10938;44.794;-0.676;2022-10-31T12:12:51;100659.53;;;23.61;98.25
21555;BME280;10938;44.794;-0.676;2022-10-31T12:20:59;100669.59;;;24.16;93.63
21555;BME280;10938;44.794;-0.676;2022-10-31T12:29:07;100651.91;;;24.15;89.81
21555;BME280;10938;44.794;-0.676;2022-10-31T12:42:26;100629.63;;;24.16;91.47
21555;BME280;10938;44.794;-0.676;2022-10-31T12:53:06;100620.38;;;23.84;88.32
21555;BME280;10938;44.794;-0.676;2022-10-31T12:58:36;100613.75;;;23.31;93.76
21555;BME280;10938;44.794;-0.676;2022-10-31T13:01:09;100602.41;;;23.04;94.36
21555;BME280;10938;44.794;-0.676;2022-10-31T13:03:56;100618.28;;;22.84;95.67
21555;BME280;10938;44.794;-0.676;2022-10-31T13:06:47;100602.47;;;23.24;97.59
21555;BME280;10938;44.794;-0.676;2022-10-31T13:09:20;100613.69;;;23.54;96.82
21555;BME280;10938;44.794;-0.676;2022-10-31T13:12:01;100610.78;;;23.38;100.00
21555;BME280;10938;44.794;-0.676;2022-10-31T13:14:33;100616.44;;;22.86;100.00
21555;BME280;10938;44.794;-0.676;2022-10-31T13:17:01;100604.34;;;23.00;100.00
21555;BME280;10938;44.794;-0.676;2022-10-31T13:19:35;100612.00;;;23.08;100.00
21555;BME280;10938;44.794;-0.676;2022-10-31T13:24:35;100622.53;;;23.54;97.30
21555;BME280;10938;44.794;-0.676;2022-10-31T13:27:10;100624.56;;;23.90;96.58
21555;BME280;10938;44.794;-0.676;2022-10-31T13:29:42;100627.50;;;24.04;96.50
21555;BME280;10938;44.794;-0.676;2022-10-31T13:32:10;100626.56;;;24.05;96.61
21555;BME280;10938;44.794;-0.676;2022-10-31T13:34:51;100619.03;;;23.74;100.00
21555;BME280;10938;44.794;-0.676;2022-10-31T13:45:18;100613.94;;;23.48;100.00
21555;BME280;10938;44.794;-0.676;2022-10-31T13:50:24;100607.81;;;23.24;100.00
21555;BME280;10938;44.794;-0.676;2022-10-31T13:52:50;100611.88;;;23.11;100.00
21555;BME280;10938;44.794;-0.676;2022-10-31T13:55:40;100614.16;;;22.98;100.00
21555;BME280;10938;44.794;-0.676;2022-10-31T13:58:25;100604.31;;;23.22;100.00
21555;BME280;10938;44.794;-0.676;2022-10-31T14:03:37;100602.91;;;22.69;100.00
21555;BME280;10938;44.794;-0.676;2022-10-31T14:06:03;100599.72;;;22.59;100.00
21555;BME280;10938;44.794;-0.676;2022-10-31T14:08:32;100602.59;;;22.78;100.00
21555;BME280;10938;44.794;-0.676;2022-10-31T14:10:59;100601.28;;;22.65;100.00
21555;BME280;10938;44.794;-0.676;2022-10-31T14:13:31;100600.81;;;23.00;100.00
21555;BME280;10938;44.794;-0.676;2022-10-31T14:16:05;100596.41;;;22.06;100.00
21555;BME280;10938;44.794;-0.676;2022-10-31T14:18:41;100585.75;;;21.81;100.00
21555;BME280;10938;44.794;-0.676;2022-10-31T14:23:52;100598.41;;;22.47;100.00
21555;BME280;10938;44.794;-0.676;2022-10-31T14:31:51;100620.78;;;23.10;100.00
21555;BME280;10938;44.794;-0.676;2022-10-31T14:34:19;100620.34;;;23.21;100.00
21555;BME280;10938;44.794;-0.676;2022-10-31T14:45:04;100616.91;;;23.40;98.10
21555;BME280;10938;44.794;-0.676;2022-10-31T14:53:03;100633.25;;;22.86;98.52
21555;BME280;10938;44.794;-0.676;2022-10-31T14:55:30;100629.28;;;22.75;99.11
21555;BME280;10938;44.794;-0.676;2022-10-31T14:58:02;100623.47;;;22.87;98.50
21555;BME280;10938;44.794;-0.676;2022-10-31T15:00:31;100624.41;;;22.86;98.09
21555;BME280;10938;44.794;-0.676;2022-10-31T15:05:41;100625.81;;;22.73;96.74
21555;BME280;10938;44.794;-0.676;2022-10-31T15:08:25;100624.72;;;23.00;96.09
21555;BME280;10938;44.794;-0.676;2022-10-31T15:10:51;100627.38;;;22.78;95.77
21555;BME280;10938;44.794;-0.676;2022-10-31T15:13:19;100630.19;;;22.97;94.85